Time;durP1;ratioP1;P1;durP2;ratioP2;P2;SDS_P1;SDS_P2;PMS_P1;PMS_P2;Temp;Humidity;BMP_temperature;BMP_pressure;BME280_temperature;BME280_humidity;BME280_pressure;Samples;Min_cycle;Max_cycle;Signal;HPM_P1;HPM_P2
2020/12/31 00:00:37;;;;;;;25.60;9.90;;;;;;;8.35;86.36;99008.51;124756;1143;22715;-68
2020/12/31 00:03:05;;;;;;;26.50;10.20;;;;;;;8.37;86.25;98998.19;124646;1142;22737;-68
2020/12/31 00:05:33;;;;;;;21.80;10.25;;;;;;;8.38;86.42;98999.83;124814;1144;23348;-67
2020/12/31 00:08:00;;;;;;;23.07;10.90;;;;;;;8.39;86.11;99005.00;124626;1143;23399;-68
2020/12/31 00:10:30;;;;;;;17.00;9.50;;;;;;;8.40;86.51;98994.97;124824;1144;22682;-68
2020/12/31 00:12:58;;;;;;;27.07;10.37;;;;;;;8.41;86.47;99002.86;124747;1143;22770;-68
2020/12/31 00:15:34;;;;;;;23.52;10.13;;;;;;;8.42;86.39;98998.25;124761;1144;23268;-68
2020/12/31 00:18:02;;;;;;;19.55;10.75;;;;;;;8.41;86.33;98994.71;124639;1144;23759;-68
2020/12/31 00:20:30;;;;;;;21.97;9.50;;;;;;;8.40;86.41;98992.25;124842;1143;22685;-68
2020/12/31 00:22:57;;;;;;;25.80;10.85;;;;;;;8.27;86.42;98973.63;124728;1143;22688;-67
2020/12/31 00:25:24;;;;;;;21.05;10.60;;;;;;;8.41;86.26;98993.89;124762;1144;22760;-68
2020/12/31 00:27:52;;;;;;;27.77;9.07;;;;;;;8.40;86.32;98992.25;124545;1144;22681;-68
2020/12/31 00:30:19;;;;;;;21.97;9.90;;;;;;;8.39;86.48;98990.61;124739;1144;23290;-68
2020/12/31 00:32:49;;;;;;;21.03;11.07;;;;;;;8.39;86.15;98993.33;124687;1143;22650;-68
2020/12/31 00:35:18;;;;;;;19.10;9.43;;;;;;;8.42;86.12;98995.53;124633;1143;22711;-67
2020/12/31 00:37:45;;;;;;;18.63;9.80;;;;;;;8.42;86.40;98995.53;124556;1142;22697;-68
2020/12/31 00:40:30;;;;;;;24.15;10.05;;;;;;;8.42;86.46;98985.50;124831;1143;23854;-68
2020/12/31 00:42:57;;;;;;;27.55;11.40;;;;;;;8.43;86.58;98994.45;124555;1144;22749;-68
2020/12/31 00:45:24;;;;;;;24.00;11.30;;;;;;;8.41;86.15;99005.58;124753;1142;23258;-68
2020/12/31 00:47:52;;;;;;;26.80;12.05;;;;;;;8.40;86.49;98995.79;124671;1144;22767;-68
2020/12/31 00:50:22;;;;;;;23.25;11.70;;;;;;;8.41;86.65;99002.03;124598;1143;22653;-68
2020/12/31 00:52:50;;;;;;;23.43;11.67;;;;;;;8.40;86.51;98998.50;124753;1142;22646;-69
2020/12/31 00:55:17;;;;;;;23.95;11.40;;;;;;;8.41;86.49;98999.32;124556;1143;22831;-69
2020/12/31 00:57:45;;;;;;;26.55;11.90;;;;;;;8.40;86.29;99003.11;124725;1143;22686;-69
2020/12/31 01:00:13;;;;;;;22.80;10.47;;;;;;;8.40;86.48;98997.68;124627;1142;23464;-68
2020/12/31 01:03:01;;;;;;;;;;;;;;;8.39;86.06;99002.29;124659;1144;22674;-68
2020/12/31 01:05:28;;;;;;;19.80;9.10;;;;;;;8.39;86.41;99005.00;124672;1143;22037;-69
2020/12/31 01:07:56;;;;;;;23.45;10.15;;;;;;;8.40;86.30;99003.11;124765;1144;22799;-68
2020/12/31 01:10:23;;;;;;;23.75;12.80;;;;;;;8.39;86.28;99002.29;124528;1144;22695;-68
2020/12/31 01:12:50;;;;;;;22.40;11.55;;;;;;;8.40;86.21;99005.83;124637;1144;23516;-68
2020/12/31 01:15:18;;;;;;;24.85;12.30;;;;;;;8.38;85.92;98999.83;124226;1143;22696;-67
2020/12/31 01:17:45;;;;;;;27.00;12.40;;;;;;;8.35;86.30;99005.80;124711;1144;22809;-68
2020/12/31 01:20:13;;;;;;;24.85;11.10;;;;;;;8.35;86.06;99000.36;124562;1143;22795;-68
2020/12/31 01:22:41;;;;;;;24.10;10.60;;;;;;;8.35;86.32;99011.22;124906;1143;23480;-68
2020/12/31 01:25:08;;;;;;;37.20;15.37;;;;;;;8.34;86.12;98996.01;124375;1144;22666;-68
2020/12/31 01:27:39;;;;;;;31.30;15.43;;;;;;;8.33;86.06;98997.08;124720;1144;22722;-69
2020/12/31 01:30:06;;;;;;;31.05;14.90;;;;;;;8.32;86.46;98996.27;124664;1143;22679;-68
2020/12/31 01:32:33;;;;;;;26.75;11.60;;;;;;;8.32;86.30;99012.55;124769;1142;22772;-68
2020/12/31 01:35:01;;;;;;;33.63;15.37;;;;;;;8.33;86.40;99005.23;124548;1144;22758;-68
2020/12/31 01:37:29;;;;;;;29.00;12.45;;;;;;;8.33;86.12;99013.38;124793;1144;22666;-68
2020/12/31 01:39:56;;;;;;;19.00;10.40;;;;;;;8.34;86.45;99012.30;124498;1144;23333;-68
2020/12/31 01:42:23;;;;;;;26.00;12.25;;;;;;;8.36;86.57;99010.15;124816;1142;22877;-68
2020/12/31 01:44:51;;;;;;;31.57;13.63;;;;;;;8.35;86.22;99005.80;124821;1144;23215;-68
2020/12/31 01:47:18;;;;;;;43.77;18.60;;;;;;;8.35;86.23;99008.51;124515;1144;23511;-68
2020/12/31 01:49:46;;;;;;;24.70;12.90;;;;;;;8.34;86.51;99007.69;124687;1144;22718;-69
2020/12/31 01:52:14;;;;;;;26.73;11.50;;;;;;;8.35;86.58;99006.61;124413;1144;22690;-68
2020/12/31 01:54:44;;;;;;;21.25;10.70;;;;;;;8.37;86.42;98998.19;124638;1144;22700;-69
2020/12/31 01:57:12;;;;;;;22.03;11.00;;;;;;;8.34;86.61;98999.55;124393;1144;22693;-68
2020/12/31 01:59:39;;;;;;;19.80;10.75;;;;;;;8.34;86.49;98996.01;124630;1144;23492;-68
2020/12/31 02:02:07;;;;;;;25.00;11.03;;;;;;;8.34;86.44;98998.72;124623;1144;22672;-68
2020/12/31 02:04:36;;;;;;;19.40;10.67;;;;;;;8.33;86.66;98995.19;124792;1143;22683;-68
2020/12/31 02:07:04;;;;;;;20.30;10.70;;;;;;;8.33;86.92;98994.37;124654;1143;22783;-68
2020/12/31 02:09:31;;;;;;;25.73;10.20;;;;;;;8.34;86.69;98996.01;124654;1144;22685;-68
2020/12/31 02:12:05;;;;;;;19.75;9.70;;;;;;;8.34;86.83;98988.69;124512;1144;22720;-68
2020/12/31 02:14:32;;;;;;;18.50;8.63;;;;;;;8.35;86.97;98984.08;124693;1144;22683;-68
2020/12/31 02:16:59;;;;;;;21.30;9.30;;;;;;;8.33;86.52;98980.80;121214;1144;22945;-67
2020/12/31 02:19:28;;;;;;;19.53;9.53;;;;;;;8.32;86.92;98979.16;124788;1144;22780;-68
2020/12/31 02:21:55;;;;;;;16.60;8.97;;;;;;;8.33;86.87;98980.80;124575;1144;22700;-68
2020/12/31 02:24:22;;;;;;;18.20;9.90;;;;;;;8.31;86.60;98972.87;124867;1143;22755;-68
2020/12/31 02:26:50;;;;;;;17.50;10.03;;;;;;;8.30;86.81;98979.37;124623;1144;22753;-68
2020/12/31 02:29:17;;;;;;;15.35;10.30;;;;;;;8.29;86.74;98976.91;124653;1144;23248;-68
2020/12/31 02:31:45;;;;;;;20.00;9.60;;;;;;;8.27;87.21;98976.35;124594;1144;22767;-68
2020/12/31 02:34:13;;;;;;;16.17;8.73;;;;;;;8.25;87.04;98973.07;124756;1144;22758;-68
2020/12/31 02:36:40;;;;;;;16.73;8.43;;;;;;;8.25;87.04;98967.64;124864;1142;22674;-67
2020/12/31 02:39:09;;;;;;;19.23;10.50;;;;;;;8.25;86.82;98962.21;124760;1142;23269;-68
2020/12/31 02:41:37;;;;;;;15.57;8.60;;;;;;;8.23;87.12;98969.79;124632;1144;22755;-68
2020/12/31 02:44:05;;;;;;;15.17;8.30;;;;;;;8.22;87.32;98969.00;124593;1144;22759;-68
2020/12/31 02:46:33;;;;;;;16.65;8.90;;;;;;;8.23;87.60;98980.64;124685;1144;22689;-68
2020/12/31 02:49:00;;;;;;;17.80;10.07;;;;;;;8.22;87.35;98973.61;124664;1142;22680;-68
2020/12/31 02:51:28;;;;;;;15.07;8.57;;;;;;;8.22;87.39;98979.03;124760;1144;22686;-68
2020/12/31 02:53:55;;;;;;;15.27;9.37;;;;;;;8.22;87.46;98985.28;124621;1143;22683;-68
2020/12/31 02:56:23;;;;;;;20.03;8.80;;;;;;;8.23;87.29;98967.08;124864;1144;23347;-69
2020/12/31 02:58:51;;;;;;;18.60;10.15;;;;;;;8.23;87.53;98964.36;124524;1143;22770;-68
2020/12/31 03:01:19;;;;;;;17.43;10.17;;;;;;;8.22;87.29;98963.57;124737;1144;22688;-68
2020/12/31 03:03:47;;;;;;;13.15;9.10;;;;;;;8.20;87.71;98960.29;124628;1142;22690;-68
2020/12/31 03:06:15;;;;;;;16.05;10.35;;;;;;;8.20;87.65;98954.86;124775;1143;22734;-68
2020/12/31 03:08:42;;;;;;;19.63;10.53;;;;;;;8.19;87.22;98953.22;124483;1142;22703;-68
2020/12/31 03:11:23;;;;;;;23.37;10.73;;;;;;;8.17;87.87;98949.94;124576;1144;22853;-68
2020/12/31 03:13:51;;;;;;;19.70;10.20;;;;;;;8.15;87.75;98947.48;124639;1143;22749;-69
2020/12/31 03:16:19;;;;;;;22.05;9.10;;;;;;;8.14;87.51;98943.13;124866;1144;22653;-68
2020/12/31 03:18:47;;;;;;;17.93;10.03;;;;;;;8.12;87.82;98945.27;124707;1143;22698;-68
2020/12/31 03:21:14;;;;;;;20.50;10.23;;;;;;;8.11;87.49;98938.20;124813;1142;22683;-68
2020/12/31 03:23:42;;;;;;;16.00;9.33;;;;;;;8.07;87.78;98925.43;124782;1144;23523;-68
2020/12/31 03:26:10;;;;;;;15.85;9.50;;;;;;;8.11;87.71;98929.25;124577;1143;22791;-68
2020/12/31 03:28:37;;;;;;;18.20;9.53;;;;;;;8.09;87.74;98924.08;124716;1143;22772;-68
2020/12/31 03:31:05;;;;;;;20.05;9.40;;;;;;;8.10;87.61;98939.28;124506;1144;22700;-68
2020/12/31 03:33:32;;;;;;;18.50;9.97;;;;;;;8.11;87.46;98942.81;124579;1144;22778;-68
2020/12/31 03:36:00;;;;;;;21.05;11.00;;;;;;;8.12;87.59;98937.13;124729;1144;22845;-68
2020/12/31 03:38:27;;;;;;;17.20;10.20;;;;;;;8.13;87.80;98938.77;124764;1142;22752;-68
2020/12/31 03:40:54;;;;;;;15.83;10.63;;;;;;;8.12;87.55;98930.89;124430;1144;22851;-68
2020/12/31 03:43:22;;;;;;;19.50;10.50;;;;;;;8.11;87.58;98935.49;124912;1143;22636;-68
2020/12/31 03:45:49;;;;;;;16.47;11.17;;;;;;;8.10;87.39;98933.85;124606;1144;22692;-68
2020/12/31 03:48:16;;;;;;;20.80;10.80;;;;;;;8.09;87.89;98924.08;124709;1143;22692;-68
2020/12/31 03:50:44;;;;;;;17.50;10.60;;;;;;;8.09;87.49;98926.78;124420;1144;23490;-68
2020/12/31 03:53:11;;;;;;;16.40;9.93;;;;;;;8.08;87.25;98933.28;124718;1142;22663;-68
2020/12/31 03:55:39;;;;;;;14.30;9.13;;;;;;;8.08;87.41;98933.28;124600;1142;22710;-68
2020/12/31 03:58:07;;;;;;;21.95;11.55;;;;;;;8.04;87.30;98921.33;124820;1144;22668;-68
2020/12/31 04:00:34;;;;;;;22.97;10.53;;;;;;;8.03;87.50;98922.41;124723;1142;22793;-68
2020/12/31 04:03:01;;;;;;;17.10;9.97;;;;;;;8.01;87.70;98923.73;124791;1144;22665;-68
2020/12/31 04:05:29;;;;;;;19.55;10.20;;;;;;;8.01;87.43;98934.58;124448;1144;23453;-68
2020/12/31 04:07:56;;;;;;;17.47;10.03;;;;;;;8.02;87.88;98936.22;124732;1143;22731;-68
2020/12/31 04:10:25;;;;;;;24.40;11.00;;;;;;;8.02;87.21;98936.22;124849;1144;24070;-68
2020/12/31 04:12:53;;;;;;;20.10;10.75;;;;;;;8.00;87.33;98931.05;124492;1143;22752;-68
2020/12/31 04:15:20;;;;;;;18.40;10.35;;;;;;;7.98;87.51;98935.91;124706;1142;23281;-69
2020/12/31 04:17:48;;;;;;;20.65;11.30;;;;;;;7.95;87.27;98933.69;124661;1143;22684;-68
2020/12/31 04:20:15;;;;;;;23.55;10.85;;;;;;;7.94;87.67;98939.38;124692;1142;24750;-68
2020/12/31 04:22:42;;;;;;;27.57;13.10;;;;;;;7.91;87.35;98945.33;124658;1143;22854;-68
2020/12/31 04:25:10;;;;;;;19.00;11.80;;;;;;;7.91;87.08;98935.30;124708;1142;22750;-67
2020/12/31 04:27:37;;;;;;;23.53;11.97;;;;;;;7.91;87.82;98939.91;124544;1143;22676;-68
2020/12/31 04:30:06;;;;;;;16.50;10.95;;;;;;;7.90;87.34;98951.83;124684;1144;22689;-68
2020/12/31 04:32:33;;;;;;;19.20;11.45;;;;;;;7.90;87.23;98955.36;124701;1144;22675;-68
2020/12/31 04:35:01;;;;;;;20.37;11.27;;;;;;;7.90;87.23;98952.64;124566;1144;23256;-69
2020/12/31 04:37:28;;;;;;;25.17;10.97;;;;;;;7.91;87.02;98962.42;124699;1143;22777;-68
2020/12/31 04:39:55;;;;;;;17.70;10.80;;;;;;;7.94;87.45;98975.45;124617;1144;22739;-68
2020/12/31 04:42:35;;;;;;;23.05;11.65;;;;;;;7.93;87.33;98976.56;124668;1144;22840;-68
2020/12/31 04:45:03;;;;;;;23.60;13.95;;;;;;;7.95;87.12;98971.67;124777;1143;23459;-68
2020/12/31 04:47:36;;;;;;;29.60;13.35;;;;;;;7.95;87.34;98962.71;124598;1143;24638;-69
2020/12/31 04:50:03;;;;;;;19.40;12.70;;;;;;;7.94;87.35;98970.03;124827;1143;23415;-68
2020/12/31 04:52:33;;;;;;;25.55;13.45;;;;;;;7.95;86.94;98987.13;124642;1144;23920;-68
2020/12/31 04:55:00;;;;;;;21.83;13.07;;;;;;;7.93;86.78;98973.84;124722;1143;23552;-68
2020/12/31 04:57:28;;;;;;;24.10;12.85;;;;;;;7.91;86.50;98973.27;124558;1143;22660;-68
2020/12/31 04:59:57;;;;;;;23.50;12.40;;;;;;;7.91;86.72;98980.59;124844;1142;22677;-68
2020/12/31 05:02:28;;;;;;;25.00;12.15;;;;;;;7.88;86.82;98979.20;124671;1143;23478;-68
2020/12/31 05:04:59;;;;;;;18.40;11.40;;;;;;;7.88;86.57;98981.91;124476;1144;22753;-69
2020/12/31 05:07:26;;;;;;;20.40;12.00;;;;;;;7.89;86.65;98980.84;124747;1144;22750;-68
2020/12/31 05:10:10;;;;;;;19.25;10.65;;;;;;;7.90;86.42;98989.80;124552;1142;22697;-68
2020/12/31 05:12:37;;;;;;;19.85;11.85;;;;;;;7.81;86.49;98976.67;124733;1144;23583;-68
2020/12/31 05:15:05;;;;;;;22.43;12.27;;;;;;;7.88;86.26;98984.63;124560;1143;22669;-68
2020/12/31 05:17:33;;;;;;;26.30;12.40;;;;;;;7.89;86.30;98988.98;124730;1144;22688;-68
2020/12/31 05:20:13;;;;;;;21.57;13.07;;;;;;;7.88;85.96;98986.52;124504;1142;22788;-68
2020/12/31 05:22:41;;;;;;;22.47;13.20;;;;;;;7.86;86.39;98989.48;124489;1144;22649;-68
2020/12/31 05:25:08;;;;;;;24.95;12.15;;;;;;;7.83;86.06;98995.41;124502;1142;23269;-67
2020/12/31 05:27:36;;;;;;;24.85;12.55;;;;;;;7.83;86.34;98995.41;124737;1143;22689;-68
2020/12/31 05:30:05;;;;;;;27.00;11.85;;;;;;;7.81;86.15;98994.83;124546;1144;22701;-68
2020/12/31 05:32:44;;;;;;;21.85;12.15;;;;;;;7.81;86.49;99001.08;124766;1143;22750;-68
2020/12/31 05:35:16;;;;;;;25.60;12.05;;;;;;;7.83;86.34;99002.72;124547;1142;22668;-68
2020/12/31 05:37:43;;;;;;;25.30;13.07;;;;;;;7.85;86.47;99006.00;124752;1144;23303;-68
2020/12/31 05:40:12;;;;;;;26.13;12.27;;;;;;;7.86;86.65;99004.93;124608;1142;22673;-68
2020/12/31 05:42:40;;;;;;;24.35;13.20;;;;;;;7.87;86.27;99012.81;124838;1143;23490;-68
2020/12/31 05:45:17;;;;;;;28.23;13.07;;;;;;;7.86;86.21;99013.89;124473;1142;22664;-68
2020/12/31 05:47:47;;;;;;;21.95;13.55;;;;;;;7.85;85.96;99008.72;124722;1144;23300;-68
2020/12/31 05:50:22;;;;;;;27.00;13.20;;;;;;;7.85;86.22;99020.38;124569;1144;22678;-68
2020/12/31 05:52:49;;;;;;;27.35;12.25;;;;;;;7.84;86.16;99020.63;124686;1143;26174;-68
2020/12/31 05:55:18;;;;;;;27.33;13.50;;;;;;;7.83;86.23;99019.81;124240;1143;22662;-67
2020/12/31 05:57:49;;;;;;;19.35;12.10;;;;;;;7.83;85.96;99017.09;124649;1144;22684;-68
2020/12/31 06:00:24;;;;;;;33.85;15.35;;;;;;;7.84;85.78;99017.92;124676;1144;22796;-68
2020/12/31 06:02:58;;;;;;;23.25;12.00;;;;;;;7.83;85.81;99024.41;124797;1143;24535;-68
2020/12/31 06:05:26;;;;;;;24.77;13.03;;;;;;;7.83;85.96;99019.81;124569;1143;22684;-68
2020/12/31 06:07:57;;;;;;;21.40;11.45;;;;;;;7.84;85.55;99032.30;124570;1143;23630;-68
2020/12/31 06:10:30;;;;;;;22.90;12.53;;;;;;;7.84;85.70;99029.59;124576;1144;22759;-68
2020/12/31 06:13:04;;;;;;;21.67;13.10;;;;;;;7.84;85.88;99035.02;124652;1144;22689;-68
2020/12/31 06:15:39;;;;;;;23.65;12.30;;;;;;;7.83;86.11;99033.37;124452;1144;22801;-69
2020/12/31 06:18:06;;;;;;;30.50;13.80;;;;;;;7.81;85.76;99036.33;124842;1144;22668;-68
2020/12/31 06:20:38;;;;;;;24.17;12.43;;;;;;;7.81;85.39;99038.22;124534;1142;22810;-68
2020/12/31 06:23:10;;;;;;;25.65;14.35;;;;;;;7.83;85.57;99046.11;124642;1142;22700;-69
2020/12/31 06:25:47;;;;;;;21.37;11.70;;;;;;;7.83;85.71;99040.69;124798;1142;22844;-60
2020/12/31 06:28:16;;;;;;;27.47;13.57;;;;;;;7.83;85.54;99044.22;124559;1144;22727;-61
2020/12/31 06:30:50;;;;;;;22.95;11.75;;;;;;;7.84;85.62;99036.91;124759;1144;22814;-61
2020/12/31 06:33:32;;;;;;;22.20;13.65;;;;;;;7.84;85.93;99037.72;124512;1144;22672;-61
2020/12/31 06:36:02;;;;;;;24.53;13.23;;;;;;;7.85;85.77;99043.97;124670;1144;23152;-61
2020/12/31 06:38:33;;;;;;;23.80;13.70;;;;;;;7.84;85.87;99037.72;124377;1143;22683;-61
2020/12/31 06:41:00;;;;;;;24.85;12.65;;;;;;;7.84;85.99;99034.19;124794;1144;22837;-61
2020/12/31 06:43:35;;;;;;;24.60;12.50;;;;;;;7.81;85.96;99040.94;124482;1144;22712;-61
2020/12/31 06:46:19;;;;;;;24.70;14.45;;;;;;;7.78;86.22;99039.57;124761;1144;22734;-60
2020/12/31 06:48:52;;;;;;;22.80;13.40;;;;;;;7.78;86.09;99038.75;124732;1143;22693;-60
2020/12/31 06:51:28;;;;;;;22.00;12.60;;;;;;;7.77;85.49;99039.82;124720;1144;22772;-60
2020/12/31 06:53:55;;;;;;;27.27;13.03;;;;;;;7.76;85.64;99041.71;124524;1143;22779;-60
2020/12/31 06:56:42;;;;;;;22.35;12.40;;;;;;;7.78;86.09;99055.02;124822;1142;22722;-61
2020/12/31 06:59:38;;;;;;;29.23;13.37;;;;;;;7.76;85.86;99047.13;124545;1143;22701;-61
2020/12/31 07:02:09;;;;;;;19.75;12.85;;;;;;;7.78;85.64;99052.31;124580;1144;22706;-61
2020/12/31 07:04:39;;;;;;;21.60;12.80;;;;;;;7.78;86.16;99053.12;124594;1144;23676;-61
2020/12/31 07:07:18;;;;;;;24.60;13.50;;;;;;;7.78;86.16;99050.42;124638;1144;22742;-60
2020/12/31 07:10:01;;;;;;;21.40;12.70;;;;;;;7.80;86.10;99044.72;124444;1144;22808;-60
2020/12/31 07:12:39;;;;;;;21.60;12.65;;;;;;;7.79;85.97;99045.81;124701;1143;23486;-60
2020/12/31 07:15:07;;;;;;;23.15;12.80;;;;;;;7.78;86.43;99038.75;124756;1142;23423;-60
2020/12/31 07:17:40;;;;;;;23.30;13.90;;;;;;;7.79;85.71;99048.53;124750;1142;22824;-60
2020/12/31 07:20:10;;;;;;;24.10;14.20;;;;;;;7.78;86.53;99046.88;124566;1142;23639;-59
2020/12/31 07:22:38;;;;;;;28.45;15.15;;;;;;;7.77;86.66;99051.48;124702;1143;22689;-60
2020/12/31 07:25:07;;;;;;;28.65;13.90;;;;;;;7.78;86.19;99050.42;124567;1144;22681;-59
2020/12/31 07:27:43;;;;;;;27.15;13.25;;;;;;;7.78;86.49;99055.84;124663;1144;23824;-59
2020/12/31 07:30:17;;;;;;;22.70;13.00;;;;;;;7.79;86.13;99057.45;124485;1144;22680;-60
2020/12/31 07:32:54;;;;;;;23.15;13.20;;;;;;;7.79;86.21;99051.23;124654;1142;22794;-60
2020/12/31 07:35:34;;;;;;;24.85;14.50;;;;;;;7.80;86.39;99056.38;124316;1144;22713;-60
2020/12/31 07:38:13;;;;;;;22.05;13.80;;;;;;;7.81;86.27;99068.05;124653;1143;22660;-60
2020/12/31 07:40:47;;;;;;;26.60;13.93;;;;;;;7.81;86.49;99071.59;124421;1144;22811;-60
2020/12/31 07:43:15;;;;;;;23.10;13.55;;;;;;;7.83;86.70;99065.09;124666;1142;22684;-61
2020/12/31 07:45:46;;;;;;;27.30;14.70;;;;;;;7.81;86.30;99073.48;124314;1144;22751;-61
2020/12/31 07:48:14;;;;;;;32.00;15.40;;;;;;;7.82;86.34;99080.55;124667;1143;23506;-62
2020/12/31 07:50:44;;;;;;;29.50;14.60;;;;;;;7.82;86.37;99075.12;124419;1144;23830;-61
2020/12/31 07:53:12;;;;;;;29.10;14.40;;;;;;;7.84;86.20;99089.26;124658;1144;22718;-64
2020/12/31 07:55:52;;;;;;;35.70;16.75;;;;;;;7.84;86.46;99078.41;124300;1144;23319;-63
2020/12/31 07:58:21;;;;;;;24.03;13.00;;;;;;;7.76;86.66;99065.30;124574;1144;23604;-60
2020/12/31 08:01:02;;;;;;;26.87;14.53;;;;;;;7.87;86.69;99080.63;124471;1143;22705;-61
2020/12/31 08:03:29;;;;;;;27.80;14.70;;;;;;;7.87;86.58;99088.77;124636;1143;22688;-61
2020/12/31 08:06:01;;;;;;;25.60;13.55;;;;;;;7.89;86.94;99083.91;124363;1142;23277;-61
2020/12/31 08:08:28;;;;;;;29.60;16.20;;;;;;;7.90;86.36;99087.45;124586;1143;22725;-62
2020/12/31 08:10:56;;;;;;;28.80;15.05;;;;;;;7.90;86.35;99085.55;124317;1144;22664;-62
2020/12/31 08:13:23;;;;;;;23.75;13.90;;;;;;;7.92;86.20;99088.84;124612;1144;22695;-63
2020/12/31 08:15:52;;;;;;;27.30;14.20;;;;;;;7.90;86.13;99090.98;124408;1144;22749;-63
2020/12/31 08:18:21;;;;;;;25.20;13.70;;;;;;;7.89;86.17;99091.23;124632;1144;22749;-64
2020/12/31 08:20:49;;;;;;;22.83;13.00;;;;;;;7.87;86.50;99091.47;124431;1144;22781;-62
2020/12/31 08:23:18;;;;;;;29.27;14.90;;;;;;;7.88;86.65;99076.02;124570;1144;22711;-62
2020/12/31 08:25:46;;;;;;;30.05;16.60;;;;;;;7.88;86.21;99076.84;123236;1144;24034;-63
2020/12/31 08:28:17;;;;;;;24.35;14.20;;;;;;;7.91;86.33;99084.48;124595;1143;23805;-63
2020/12/31 08:30:44;;;;;;;28.35;16.70;;;;;;;7.89;86.58;99081.20;124465;1144;24024;-63
2020/12/31 08:33:12;;;;;;;29.53;13.73;;;;;;;7.88;86.20;99076.84;124678;1144;22674;-63
2020/12/31 08:35:43;;;;;;;25.35;14.15;;;;;;;7.87;86.09;99072.48;124579;1143;22690;-63
2020/12/31 08:38:23;;;;;;;23.40;13.60;;;;;;;7.86;86.11;99073.56;124376;1144;22780;-63
2020/12/31 08:40:52;;;;;;;25.85;14.30;;;;;;;7.86;86.53;99076.27;124618;1144;22690;-64
2020/12/31 08:43:36;;;;;;;23.35;12.70;;;;;;;7.88;86.29;99067.88;124536;1144;22704;-64
2020/12/31 08:46:05;;;;;;;24.30;12.40;;;;;;;7.90;86.21;99061.14;124653;1143;22859;-64
2020/12/31 08:48:33;;;;;;;23.25;13.15;;;;;;;7.92;85.93;99072.56;124428;1144;22959;-64
2020/12/31 08:51:13;;;;;;;23.35;13.00;;;;;;;7.94;86.42;99078.53;124674;1142;23618;-64
2020/12/31 08:54:00;;;;;;;22.35;12.75;;;;;;;7.94;86.73;99066.86;124413;1144;23672;-64
2020/12/31 08:56:29;;;;;;;28.15;14.20;;;;;;;7.95;86.18;99072.03;124715;1144;22674;-64
2020/12/31 08:59:16;;;;;;;23.20;14.43;;;;;;;7.97;86.21;99063.65;124284;1144;22799;-64
2020/12/31 09:01:44;;;;;;;26.15;16.10;;;;;;;7.97;86.61;99071.78;124791;1143;22671;-64
2020/12/31 09:04:22;;;;;;;23.60;14.60;;;;;;;7.97;86.08;99075.33;124357;1144;22669;-65
2020/12/31 09:06:52;;;;;;;24.40;13.30;;;;;;;7.98;86.22;99073.43;124682;1144;23224;-65
2020/12/31 09:09:21;;;;;;;22.13;12.27;;;;;;;7.99;86.17;99066.94;124336;1143;22699;-67
2020/12/31 09:12:03;;;;;;;19.10;10.75;;;;;;;7.97;86.70;99071.78;124767;1142;23347;-63
2020/12/31 09:14:32;;;;;;;23.55;13.40;;;;;;;7.97;86.14;99064.47;124634;1144;22696;-64
2020/12/31 09:16:59;;;;;;;31.10;14.05;;;;;;;7.98;86.09;99066.11;124684;1144;22691;-63
2020/12/31 09:19:27;;;;;;;45.27;19.23;;;;;;;7.97;86.56;99066.36;124620;1144;22674;-63
2020/12/31 09:21:55;;;;;;;32.40;15.80;;;;;;;7.97;86.50;99061.76;124662;1144;23399;-63
2020/12/31 09:25:18;;;;;;;25.25;12.80;;;;;;;7.99;86.52;99070.47;120161;1147;26347;-63
2020/12/31 09:27:46;;;;;;;25.55;16.30;;;;;;;7.99;86.77;99067.75;119765;1147;24600;-63
2020/12/31 09:30:15;;;;;;;21.80;13.60;;;;;;;8.01;86.81;99062.91;123995;1147;22912;-63
2020/12/31 09:32:46;;;;;;;27.20;13.10;;;;;;;8.00;86.59;99061.27;124257;1147;22691;-63
2020/12/31 09:35:13;;;;;;;24.45;12.95;;;;;;;8.02;86.42;99069.97;124222;1147;23518;-63
2020/12/31 09:37:50;;;;;;;18.50;10.85;;;;;;;8.00;86.13;99061.27;124433;1147;22763;-63
2020/12/31 09:40:17;;;;;;;21.52;12.95;;;;;;;8.01;86.59;99064.80;124212;1147;22693;-63
2020/12/31 09:42:45;;;;;;;24.05;12.75;;;;;;;8.02;86.50;99058.30;124427;1146;22746;-63
2020/12/31 09:45:13;;;;;;;22.23;12.70;;;;;;;8.02;86.47;99056.41;124221;1147;24198;-63
2020/12/31 09:47:40;;;;;;;28.10;14.37;;;;;;;8.03;86.68;99051.80;124383;1146;23511;-63
2020/12/31 09:50:09;;;;;;;26.03;15.13;;;;;;;8.05;87.08;99055.09;124289;1146;23938;-63
2020/12/31 09:52:38;;;;;;;20.90;13.73;;;;;;;8.05;86.63;99049.66;124401;1147;23530;-63
2020/12/31 09:55:22;;;;;;;19.00;11.00;;;;;;;8.07;86.49;99047.52;124265;1147;22780;-62
2020/12/31 09:57:50;;;;;;;17.47;10.90;;;;;;;8.08;86.54;99043.70;124468;1147;22726;-63
2020/12/31 10:00:17;;;;;;;18.03;10.07;;;;;;;8.10;86.86;99049.70;124290;1146;22725;-63
2020/12/31 10:02:45;;;;;;;24.73;13.87;;;;;;;8.12;86.84;99044.84;124388;1147;23374;-63
2020/12/31 10:05:12;;;;;;;27.33;14.07;;;;;;;8.13;86.40;99047.31;124258;1147;22706;-63
2020/12/31 10:07:39;;;;;;;16.55;10.10;;;;;;;8.13;86.58;99041.88;124246;1145;22669;-63
2020/12/31 10:10:07;;;;;;;19.10;10.30;;;;;;;8.15;86.70;99050.59;124361;1147;22817;-63
2020/12/31 10:12:35;;;;;;;27.50;15.70;;;;;;;8.18;86.73;99040.31;124595;1144;22709;-63
2020/12/31 10:15:03;;;;;;;25.10;14.60;;;;;;;8.16;86.77;99037.84;124488;1145;22790;-63
2020/12/31 10:17:30;;;;;;;22.37;14.27;;;;;;;8.15;86.79;99045.17;124491;1145;22699;-63
2020/12/31 10:19:58;;;;;;;21.00;13.70;;;;;;;8.13;86.69;99033.74;124497;1145;22744;-63
2020/12/31 10:22:25;;;;;;;19.13;12.43;;;;;;;8.12;86.96;99026.67;124531;1145;23839;-63
2020/12/31 10:24:52;;;;;;;18.07;11.50;;;;;;;8.10;86.84;99036.13;124521;1145;22771;-63
2020/12/31 10:27:20;;;;;;;20.75;11.70;;;;;;;8.07;87.12;99026.63;124271;1145;22685;-63
2020/12/31 10:29:47;;;;;;;16.85;10.20;;;;;;;8.08;86.58;99030.14;124512;1145;23333;-63
2020/12/31 10:32:15;;;;;;;13.83;8.87;;;;;;;8.08;86.75;99028.25;124381;1145;22745;-63
2020/12/31 10:34:42;;;;;;;15.70;9.45;;;;;;;8.09;87.20;99018.21;124565;1145;22692;-63
2020/12/31 10:37:09;;;;;;;15.65;9.95;;;;;;;8.09;87.01;99018.21;124419;1145;22678;-63
2020/12/31 10:39:37;;;;;;;18.45;10.75;;;;;;;8.11;87.14;99016.89;124424;1145;22791;-63
2020/12/31 10:42:05;;;;;;;22.85;10.65;;;;;;;8.11;87.53;99008.75;124308;1145;22749;-63
2020/12/31 10:44:33;;;;;;;15.65;10.40;;;;;;;8.13;87.40;99008.50;124377;1145;22713;-63
2020/12/31 10:47:01;;;;;;;12.25;8.40;;;;;;;8.13;87.50;99003.89;124341;1144;22711;-63
2020/12/31 10:49:28;;;;;;;16.20;9.85;;;;;;;8.16;86.99;99003.39;124417;1144;23473;-63
2020/12/31 10:51:56;;;;;;;16.65;10.40;;;;;;;8.17;87.17;99001.50;124336;1144;22676;-63
2020/12/31 10:54:23;;;;;;;18.30;11.07;;;;;;;8.18;87.24;99000.42;124513;1144;22716;-63
2020/12/31 10:56:50;;;;;;;17.80;11.33;;;;;;;8.16;87.20;98997.97;124459;1144;22772;-63
2020/12/31 10:59:18;;;;;;;18.65;12.50;;;;;;;8.18;87.02;99002.32;124629;1144;23893;-63
2020/12/31 11:01:50;;;;;;;24.95;15.90;;;;;;;8.18;86.82;99000.42;124378;1143;22673;-63
2020/12/31 11:04:18;;;;;;;21.83;12.50;;;;;;;8.20;87.23;98997.46;124508;1144;22646;-63
2020/12/31 11:06:46;;;;;;;15.27;9.57;;;;;;;8.21;87.12;98996.39;124502;1144;22711;-63
2020/12/31 11:09:13;;;;;;;16.30;9.87;;;;;;;8.20;86.81;98990.14;124632;1144;22667;-63
2020/12/31 11:11:41;;;;;;;25.07;14.87;;;;;;;8.22;87.34;98987.17;124550;1144;22682;-62
2020/12/31 11:14:08;;;;;;;26.50;16.47;;;;;;;8.22;87.02;98996.13;124414;1144;22769;-63
2020/12/31 11:16:36;;;;;;;23.95;15.75;;;;;;;8.22;87.00;98996.13;124597;1143;22745;-63
2020/12/31 11:19:04;;;;;;;22.97;13.97;;;;;;;8.24;87.30;98982.28;124268;1145;22685;-63
2020/12/31 11:21:31;;;;;;;19.57;12.90;;;;;;;8.23;87.25;98986.89;124580;1143;22686;-63
2020/12/31 11:23:59;;;;;;;21.97;14.33;;;;;;;8.26;87.45;98996.42;124372;1144;23422;-63
2020/12/31 11:26:27;;;;;;;17.40;11.63;;;;;;;8.27;87.48;98992.63;124518;1146;22861;-63
2020/12/31 11:28:55;;;;;;;12.75;8.80;;;;;;;8.26;87.28;98993.70;124394;1145;22687;-63
2020/12/31 11:31:24;;;;;;;19.13;10.70;;;;;;;8.27;87.00;98992.63;124556;1144;22777;-63